sensor_id;sensor_type;location;lat;lon;timestamp;temperature;humidity
53876;DHT22;39789;53.216;5.624;2024-02-21T00:00:48;9.00;99.90
53876;DHT22;39789;53.216;5.624;2024-02-21T00:03:13;9.10;99.90
53876;DHT22;39789;53.216;5.624;2024-02-21T00:05:39;9.00;99.90
53876;DHT22;39789;53.216;5.624;2024-02-21T00:08:05;9.00;99.90
53876;DHT22;39789;53.216;5.624;2024-02-21T00:10:31;9.00;99.90
53876;DHT22;39789;53.216;5.624;2024-02-21T00:13:00;9.00;99.90
53876;DHT22;39789;53.216;5.624;2024-02-21T00:15:26;9.00;99.90
53876;DHT22;39789;53.216;5.624;2024-02-21T00:17:52;9.00;99.90
53876;DHT22;39789;53.216;5.624;2024-02-21T00:20:17;9.00;99.90
53876;DHT22;39789;53.216;5.624;2024-02-21T00:22:46;9.00;99.90
53876;DHT22;39789;53.216;5.624;2024-02-21T00:25:12;9.00;99.90
53876;DHT22;39789;53.216;5.624;2024-02-21T00:27:38;9.00;99.90
53876;DHT22;39789;53.216;5.624;2024-02-21T00:30:05;9.00;99.90
53876;DHT22;39789;53.216;5.624;2024-02-21T00:32:31;9.00;99.90
53876;DHT22;39789;53.216;5.624;2024-02-21T00:34:59;9.10;99.90
53876;DHT22;39789;53.216;5.624;2024-02-21T00:37:25;9.00;99.90
53876;DHT22;39789;53.216;5.624;2024-02-21T00:39:51;9.00;99.90
53876;DHT22;39789;53.216;5.624;2024-02-21T00:42:16;9.80;99.90
53876;DHT22;39789;53.216;5.624;2024-02-21T00:44:42;9.00;99.90
53876;DHT22;39789;53.216;5.624;2024-02-21T00:47:08;8.90;99.90
53876;DHT22;39789;53.216;5.624;2024-02-21T00:49:33;9.00;99.90
53876;DHT22;39789;53.216;5.624;2024-02-21T00:52:02;8.90;99.90
53876;DHT22;39789;53.216;5.624;2024-02-21T00:54:27;8.90;99.90
53876;DHT22;39789;53.216;5.624;2024-02-21T00:56:54;8.90;99.90
53876;DHT22;39789;53.216;5.624;2024-02-21T00:59:20;8.90;99.90
53876;DHT22;39789;53.216;5.624;2024-02-21T01:01:47;8.90;99.90
53876;DHT22;39789;53.216;5.624;2024-02-21T01:04:13;8.90;99.90
53876;DHT22;39789;53.216;5.624;2024-02-21T01:06:38;8.90;99.90
53876;DHT22;39789;53.216;5.624;2024-02-21T01:09:05;9.30;99.90
53876;DHT22;39789;53.216;5.624;2024-02-21T01:11:35;9.00;99.90
53876;DHT22;39789;53.216;5.624;2024-02-21T01:14:01;8.90;99.90
53876;DHT22;39789;53.216;5.624;2024-02-21T01:16:26;8.90;99.90
53876;DHT22;39789;53.216;5.624;2024-02-21T01:18:52;9.00;99.90
53876;DHT22;39789;53.216;5.624;2024-02-21T01:21:18;8.40;99.90
53876;DHT22;39789;53.216;5.624;2024-02-21T01:23:43;8.90;99.90
53876;DHT22;39789;53.216;5.624;2024-02-21T01:26:10;8.90;99.90
53876;DHT22;39789;53.216;5.624;2024-02-21T01:28:39;8.90;99.90
53876;DHT22;39789;53.216;5.624;2024-02-21T01:31:05;8.90;99.90
53876;DHT22;39789;53.216;5.624;2024-02-21T01:33:31;8.90;99.90
53876;DHT22;39789;53.216;5.624;2024-02-21T01:36:03;8.90;99.90
53876;DHT22;39789;53.216;5.624;2024-02-21T01:38:29;9.00;99.90
53876;DHT22;39789;53.216;5.624;2024-02-21T01:40:55;8.90;99.90
53876;DHT22;39789;53.216;5.624;2024-02-21T01:43:22;9.00;99.90
53876;DHT22;39789;53.216;5.624;2024-02-21T01:45:52;9.00;99.90
53876;DHT22;39789;53.216;5.624;2024-02-21T01:48:18;9.60;99.90
53876;DHT22;39789;53.216;5.624;2024-02-21T01:50:45;9.00;99.90
53876;DHT22;39789;53.216;5.624;2024-02-21T01:53:19;9.00;99.90
53876;DHT22;39789;53.216;5.624;2024-02-21T01:55:48;9.00;99.90
53876;DHT22;39789;53.216;5.624;2024-02-21T01:58:15;9.00;99.90
53876;DHT22;39789;53.216;5.624;2024-02-21T02:00:45;9.00;99.90
53876;DHT22;39789;53.216;5.624;2024-02-21T02:03:12;9.00;99.90
53876;DHT22;39789;53.216;5.624;2024-02-21T02:05:49;9.00;99.90
53876;DHT22;39789;53.216;5.624;2024-02-21T02:08:19;9.00;99.90
53876;DHT22;39789;53.216;5.624;2024-02-21T02:10:45;9.10;99.90
53876;DHT22;39789;53.216;5.624;2024-02-21T02:13:12;8.90;99.90
53876;DHT22;39789;53.216;5.624;2024-02-21T02:15:45;8.90;99.90
53876;DHT22;39789;53.216;5.624;2024-02-21T02:18:12;8.90;99.90
53876;DHT22;39789;53.216;5.624;2024-02-21T02:20:38;8.90;99.90
53876;DHT22;39789;53.216;5.624;2024-02-21T02:23:11;9.00;99.90
53876;DHT22;39789;53.216;5.624;2024-02-21T02:25:38;8.90;99.90
53876;DHT22;39789;53.216;5.624;2024-02-21T02:28:05;8.90;99.90
53876;DHT22;39789;53.216;5.624;2024-02-21T02:30:37;8.90;99.90
53876;DHT22;39789;53.216;5.624;2024-02-21T02:33:04;8.80;99.90
53876;DHT22;39789;53.216;5.624;2024-02-21T02:35:31;8.70;99.90
53876;DHT22;39789;53.216;5.624;2024-02-21T02:37:56;8.70;99.90
53876;DHT22;39789;53.216;5.624;2024-02-21T02:40:22;8.90;99.90
53876;DHT22;39789;53.216;5.624;2024-02-21T02:42:49;8.80;99.90
53876;DHT22;39789;53.216;5.624;2024-02-21T02:45:15;8.70;99.90
53876;DHT22;39789;53.216;5.624;2024-02-21T02:47:41;8.70;99.90
53876;DHT22;39789;53.216;5.624;2024-02-21T02:50:07;8.70;99.90
53876;DHT22;39789;53.216;5.624;2024-02-21T02:52:33;8.70;99.90
53876;DHT22;39789;53.216;5.624;2024-02-21T02:55:00;8.70;99.90
53876;DHT22;39789;53.216;5.624;2024-02-21T02:57:27;8.70;99.90
53876;DHT22;39789;53.216;5.624;2024-02-21T02:59:53;8.80;99.90
53876;DHT22;39789;53.216;5.624;2024-02-21T03:02:18;8.80;99.90
53876;DHT22;39789;53.216;5.624;2024-02-21T03:04:44;8.20;99.90
53876;DHT22;39789;53.216;5.624;2024-02-21T03:07:14;8.80;99.90
53876;DHT22;39789;53.216;5.624;2024-02-21T03:09:40;8.90;99.90
53876;DHT22;39789;53.216;5.624;2024-02-21T03:12:06;8.80;99.90
53876;DHT22;39789;53.216;5.624;2024-02-21T03:14:32;8.80;99.90
53876;DHT22;39789;53.216;5.624;2024-02-21T03:16:58;8.80;99.90
53876;DHT22;39789;53.216;5.624;2024-02-21T03:19:25;8.80;99.90
53876;DHT22;39789;53.216;5.624;2024-02-21T03:21:51;8.90;99.90
53876;DHT22;39789;53.216;5.624;2024-02-21T03:24:17;8.90;99.90
53876;DHT22;39789;53.216;5.624;2024-02-21T03:26:43;8.90;99.90
53876;DHT22;39789;53.216;5.624;2024-02-21T03:29:10;8.90;99.90
53876;DHT22;39789;53.216;5.624;2024-02-21T03:31:37;8.90;99.90
53876;DHT22;39789;53.216;5.624;2024-02-21T03:34:03;8.90;99.90
53876;DHT22;39789;53.216;5.624;2024-02-21T03:36:29;8.90;99.90
53876;DHT22;39789;53.216;5.624;2024-02-21T03:38:55;8.90;99.90
53876;DHT22;39789;53.216;5.624;2024-02-21T03:41:21;8.90;99.90
53876;DHT22;39789;53.216;5.624;2024-02-21T03:43:47;8.90;99.90
53876;DHT22;39789;53.216;5.624;2024-02-21T03:46:14;9.00;99.90
53876;DHT22;39789;53.216;5.624;2024-02-21T03:48:41;8.90;99.90
53876;DHT22;39789;53.216;5.624;2024-02-21T03:51:06;8.90;99.90
53876;DHT22;39789;53.216;5.624;2024-02-21T03:53:32;8.90;99.90
53876;DHT22;39789;53.216;5.624;2024-02-21T03:56:01;8.90;99.90
53876;DHT22;39789;53.216;5.624;2024-02-21T03:58:29;9.00;99.90
53876;DHT22;39789;53.216;5.624;2024-02-21T04:00:55;8.90;99.90
53876;DHT22;39789;53.216;5.624;2024-02-21T04:03:24;9.00;99.90
53876;DHT22;39789;53.216;5.624;2024-02-21T04:05:49;8.90;99.90
53876;DHT22;39789;53.216;5.624;2024-02-21T04:08:16;8.90;99.90
53876;DHT22;39789;53.216;5.624;2024-02-21T04:10:41;8.90;99.90
53876;DHT22;39789;53.216;5.624;2024-02-21T04:13:07;8.90;99.90
53876;DHT22;39789;53.216;5.624;2024-02-21T04:15:35;8.90;99.90
53876;DHT22;39789;53.216;5.624;2024-02-21T04:18:02;8.90;99.90
53876;DHT22;39789;53.216;5.624;2024-02-21T04:20:28;8.90;99.90
53876;DHT22;39789;53.216;5.624;2024-02-21T04:22:55;8.90;99.90
53876;DHT22;39789;53.216;5.624;2024-02-21T04:25:20;8.90;99.90
53876;DHT22;39789;53.216;5.624;2024-02-21T04:27:46;8.90;99.90
53876;DHT22;39789;53.216;5.624;2024-02-21T04:30:12;8.90;99.90
53876;DHT22;39789;53.216;5.624;2024-02-21T04:32:39;8.90;99.90
53876;DHT22;39789;53.216;5.624;2024-02-21T04:35:05;8.90;99.90
53876;DHT22;39789;53.216;5.624;2024-02-21T04:37:31;8.90;99.90
53876;DHT22;39789;53.216;5.624;2024-02-21T04:39:56;8.90;99.90
53876;DHT22;39789;53.216;5.624;2024-02-21T04:42:22;8.90;99.90
53876;DHT22;39789;53.216;5.624;2024-02-21T04:44:48;8.90;99.90
53876;DHT22;39789;53.216;5.624;2024-02-21T04:47:14;8.90;99.90
53876;DHT22;39789;53.216;5.624;2024-02-21T04:49:39;8.90;99.90
53876;DHT22;39789;53.216;5.624;2024-02-21T04:52:05;8.80;99.90
53876;DHT22;39789;53.216;5.624;2024-02-21T04:54:31;8.90;99.90
53876;DHT22;39789;53.216;5.624;2024-02-21T04:56:56;8.80;99.90
53876;DHT22;39789;53.216;5.624;2024-02-21T04:59:22;8.80;99.90
53876;DHT22;39789;53.216;5.624;2024-02-21T05:01:48;8.80;99.90
53876;DHT22;39789;53.216;5.624;2024-02-21T05:04:13;8.90;99.90
53876;DHT22;39789;53.216;5.624;2024-02-21T05:06:42;8.80;99.90
53876;DHT22;39789;53.216;5.624;2024-02-21T05:09:09;8.80;99.90
53876;DHT22;39789;53.216;5.624;2024-02-21T05:11:38;8.80;99.90
53876;DHT22;39789;53.216;5.624;2024-02-21T05:14:04;8.70;99.90
53876;DHT22;39789;53.216;5.624;2024-02-21T05:16:33;8.80;99.90
53876;DHT22;39789;53.216;5.624;2024-02-21T05:18:59;8.80;99.90
53876;DHT22;39789;53.216;5.624;2024-02-21T05:21:24;8.80;99.90
53876;DHT22;39789;53.216;5.624;2024-02-21T05:23:51;8.80;99.90
53876;DHT22;39789;53.216;5.624;2024-02-21T05:26:24;8.70;99.90
53876;DHT22;39789;53.216;5.624;2024-02-21T05:28:50;8.80;99.90
53876;DHT22;39789;53.216;5.624;2024-02-21T05:31:17;8.80;99.90
53876;DHT22;39789;53.216;5.624;2024-02-21T05:33:43;8.80;99.90
53876;DHT22;39789;53.216;5.624;2024-02-21T05:36:09;9.20;99.90
53876;DHT22;39789;53.216;5.624;2024-02-21T05:38:35;8.80;99.90
53876;DHT22;39789;53.216;5.624;2024-02-21T05:41:01;8.80;99.90
53876;DHT22;39789;53.216;5.624;2024-02-21T05:43:27;8.80;99.90
53876;DHT22;39789;53.216;5.624;2024-02-21T05:45:52;8.80;99.90
53876;DHT22;39789;53.216;5.624;2024-02-21T05:48:18;8.80;99.90
53876;DHT22;39789;53.216;5.624;2024-02-21T05:50:44;8.80;99.90
53876;DHT22;39789;53.216;5.624;2024-02-21T05:53:10;8.80;99.90
53876;DHT22;39789;53.216;5.624;2024-02-21T05:55:36;8.90;99.90
53876;DHT22;39789;53.216;5.624;2024-02-21T05:58:02;8.90;99.90
53876;DHT22;39789;53.216;5.624;2024-02-21T06:00:28;8.90;99.90
53876;DHT22;39789;53.216;5.624;2024-02-21T06:02:55;8.80;99.90
53876;DHT22;39789;53.216;5.624;2024-02-21T06:05:20;8.80;99.90
53876;DHT22;39789;53.216;5.624;2024-02-21T06:07:46;8.80;99.90
53876;DHT22;39789;53.216;5.624;2024-02-21T06:10:12;8.80;99.90
53876;DHT22;39789;53.216;5.624;2024-02-21T06:12:37;8.80;99.90
53876;DHT22;39789;53.216;5.624;2024-02-21T06:15:03;8.90;99.90
53876;DHT22;39789;53.216;5.624;2024-02-21T06:17:29;8.90;99.90
53876;DHT22;39789;53.216;5.624;2024-02-21T06:19:55;8.90;99.90
53876;DHT22;39789;53.216;5.624;2024-02-21T06:22:20;8.90;99.90
53876;DHT22;39789;53.216;5.624;2024-02-21T06:24:46;8.90;99.90
53876;DHT22;39789;53.216;5.624;2024-02-21T06:27:19;8.90;99.90
53876;DHT22;39789;53.216;5.624;2024-02-21T06:29:46;8.80;99.90
53876;DHT22;39789;53.216;5.624;2024-02-21T06:32:12;8.80;99.90
53876;DHT22;39789;53.216;5.624;2024-02-21T06:34:38;8.80;99.90
53876;DHT22;39789;53.216;5.624;2024-02-21T06:37:03;8.80;99.90
53876;DHT22;39789;53.216;5.624;2024-02-21T06:39:29;8.80;99.90
53876;DHT22;39789;53.216;5.624;2024-02-21T06:41:55;8.90;99.90
53876;DHT22;39789;53.216;5.624;2024-02-21T06:44:22;8.80;99.90
53876;DHT22;39789;53.216;5.624;2024-02-21T06:46:50;8.80;99.90
53876;DHT22;39789;53.216;5.624;2024-02-21T06:49:16;8.80;99.90
53876;DHT22;39789;53.216;5.624;2024-02-21T06:51:45;8.10;99.90
53876;DHT22;39789;53.216;5.624;2024-02-21T06:54:11;8.80;99.90
53876;DHT22;39789;53.216;5.624;2024-02-21T06:56:37;8.70;99.90
53876;DHT22;39789;53.216;5.624;2024-02-21T06:59:03;8.80;99.90
53876;DHT22;39789;53.216;5.624;2024-02-21T07:01:29;8.80;99.90
53876;DHT22;39789;53.216;5.624;2024-02-21T07:03:56;8.80;99.90
53876;DHT22;39789;53.216;5.624;2024-02-21T07:06:22;8.90;99.90
53876;DHT22;39789;53.216;5.624;2024-02-21T07:08:47;8.80;99.90
53876;DHT22;39789;53.216;5.624;2024-02-21T07:11:13;8.90;99.90
53876;DHT22;39789;53.216;5.624;2024-02-21T07:13:39;8.80;99.90
53876;DHT22;39789;53.216;5.624;2024-02-21T07:16:05;9.00;99.90
53876;DHT22;39789;53.216;5.624;2024-02-21T07:18:31;8.80;99.90
53876;DHT22;39789;53.216;5.624;2024-02-21T07:21:00;8.80;99.90
53876;DHT22;39789;53.216;5.624;2024-02-21T07:23:26;10.20;99.90
53876;DHT22;39789;53.216;5.624;2024-02-21T07:25:52;8.80;99.90
53876;DHT22;39789;53.216;5.624;2024-02-21T07:28:18;9.00;99.90
53876;DHT22;39789;53.216;5.624;2024-02-21T07:30:43;8.80;99.90
53876;DHT22;39789;53.216;5.624;2024-02-21T07:33:09;8.90;99.90
53876;DHT22;39789;53.216;5.624;2024-02-21T07:35:35;9.00;99.90
53876;DHT22;39789;53.216;5.624;2024-02-21T07:38:04;8.90;99.90
53876;DHT22;39789;53.216;5.624;2024-02-21T07:40:30;8.90;99.90
53876;DHT22;39789;53.216;5.624;2024-02-21T07:42:56;8.80;99.90
53876;DHT22;39789;53.216;5.624;2024-02-21T07:45:22;8.90;99.90
53876;DHT22;39789;53.216;5.624;2024-02-21T07:47:50;8.90;99.90
53876;DHT22;39789;53.216;5.624;2024-02-21T07:50:16;8.90;99.90
53876;DHT22;39789;53.216;5.624;2024-02-21T07:52:42;8.90;99.90
53876;DHT22;39789;53.216;5.624;2024-02-21T07:55:08;8.90;99.90
53876;DHT22;39789;53.216;5.624;2024-02-21T07:57:36;9.00;99.90
53876;DHT22;39789;53.216;5.624;2024-02-21T08:00:02;9.00;99.90
53876;DHT22;39789;53.216;5.624;2024-02-21T08:02:29;8.90;99.90
53876;DHT22;39789;53.216;5.624;2024-02-21T08:04:55;9.00;99.90
53876;DHT22;39789;53.216;5.624;2024-02-21T08:07:21;9.00;99.90
53876;DHT22;39789;53.216;5.624;2024-02-21T08:09:46;9.00;99.90
53876;DHT22;39789;53.216;5.624;2024-02-21T08:12:12;9.00;99.90
53876;DHT22;39789;53.216;5.624;2024-02-21T08:14:38;9.00;99.90
53876;DHT22;39789;53.216;5.624;2024-02-21T08:17:06;9.00;99.90
53876;DHT22;39789;53.216;5.624;2024-02-21T08:19:32;9.00;99.90
53876;DHT22;39789;53.216;5.624;2024-02-21T08:21:58;9.00;99.90
53876;DHT22;39789;53.216;5.624;2024-02-21T08:24:23;9.00;99.90
53876;DHT22;39789;53.216;5.624;2024-02-21T08:26:49;9.00;99.90
53876;DHT22;39789;53.216;5.624;2024-02-21T08:29:15;9.00;99.90
53876;DHT22;39789;53.216;5.624;2024-02-21T08:31:40;9.00;99.90
53876;DHT22;39789;53.216;5.624;2024-02-21T08:34:06;9.00;99.90
53876;DHT22;39789;53.216;5.624;2024-02-21T08:36:35;9.00;99.90
53876;DHT22;39789;53.216;5.624;2024-02-21T08:39:03;9.00;99.90
53876;DHT22;39789;53.216;5.624;2024-02-21T08:41:32;9.00;99.90
53876;DHT22;39789;53.216;5.624;2024-02-21T08:44:01;9.00;99.90
53876;DHT22;39789;53.216;5.624;2024-02-21T08:46:27;9.00;99.90
53876;DHT22;39789;53.216;5.624;2024-02-21T08:48:54;9.10;99.90
53876;DHT22;39789;53.216;5.624;2024-02-21T08:51:20;9.10;99.90
53876;DHT22;39789;53.216;5.624;2024-02-21T08:53:46;9.10;99.90
53876;DHT22;39789;53.216;5.624;2024-02-21T08:56:12;9.10;99.90
53876;DHT22;39789;53.216;5.624;2024-02-21T08:58:39;9.20;99.90
53876;DHT22;39789;53.216;5.624;2024-02-21T09:01:05;9.20;99.90
53876;DHT22;39789;53.216;5.624;2024-02-21T09:03:33;9.20;99.90
53876;DHT22;39789;53.216;5.624;2024-02-21T09:05:59;9.20;99.90
53876;DHT22;39789;53.216;5.624;2024-02-21T09:08:26;9.20;99.90
53876;DHT22;39789;53.216;5.624;2024-02-21T09:10:52;9.30;99.90
53876;DHT22;39789;53.216;5.624;2024-02-21T09:13:18;9.30;99.90
53876;DHT22;39789;53.216;5.624;2024-02-21T09:15:48;9.30;99.90
53876;DHT22;39789;53.216;5.624;2024-02-21T09:18:15;9.30;99.90
53876;DHT22;39789;53.216;5.624;2024-02-21T09:20:44;9.30;99.90
53876;DHT22;39789;53.216;5.624;2024-02-21T09:23:10;9.30;99.90
53876;DHT22;39789;53.216;5.624;2024-02-21T09:25:36;9.30;99.90
53876;DHT22;39789;53.216;5.624;2024-02-21T09:28:03;9.30;99.90
53876;DHT22;39789;53.216;5.624;2024-02-21T09:30:31;9.30;99.90
53876;DHT22;39789;53.216;5.624;2024-02-21T09:32:57;9.20;99.90
53876;DHT22;39789;53.216;5.624;2024-02-21T09:35:25;9.40;99.90
53876;DHT22;39789;53.216;5.624;2024-02-21T09:37:53;9.30;99.90
53876;DHT22;39789;53.216;5.624;2024-02-21T09:40:19;9.40;99.90
53876;DHT22;39789;53.216;5.624;2024-02-21T09:42:47;9.40;99.90
53876;DHT22;39789;53.216;5.624;2024-02-21T09:45:24;9.50;99.90
53876;DHT22;39789;53.216;5.624;2024-02-21T09:50:49;9.50;99.90
53876;DHT22;39789;53.216;5.624;2024-02-21T09:53:16;9.50;99.90
53876;DHT22;39789;53.216;5.624;2024-02-21T09:55:43;9.50;99.90
53876;DHT22;39789;53.216;5.624;2024-02-21T09:58:10;9.50;99.90
53876;DHT22;39789;53.216;5.624;2024-02-21T10:00:37;9.50;99.90
53876;DHT22;39789;53.216;5.624;2024-02-21T10:03:03;9.50;99.90
53876;DHT22;39789;53.216;5.624;2024-02-21T10:05:37;9.60;99.90
53876;DHT22;39789;53.216;5.624;2024-02-21T10:08:04;9.60;99.90
53876;DHT22;39789;53.216;5.624;2024-02-21T10:10:40;9.60;99.90
53876;DHT22;39789;53.216;5.624;2024-02-21T10:13:07;9.60;99.90
53876;DHT22;39789;53.216;5.624;2024-02-21T10:15:33;9.60;99.90
53876;DHT22;39789;53.216;5.624;2024-02-21T10:18:02;9.50;99.90
53876;DHT22;39789;53.216;5.624;2024-02-21T10:20:32;9.50;99.90
53876;DHT22;39789;53.216;5.624;2024-02-21T10:23:06;9.50;99.90
53876;DHT22;39789;53.216;5.624;2024-02-21T10:25:42;9.40;99.90
53876;DHT22;39789;53.216;5.624;2024-02-21T10:28:13;9.40;99.90
53876;DHT22;39789;53.216;5.624;2024-02-21T10:30:50;9.30;99.90
53876;DHT22;39789;53.216;5.624;2024-02-21T10:33:17;9.40;99.90
53876;DHT22;39789;53.216;5.624;2024-02-21T10:35:46;9.50;99.90
53876;DHT22;39789;53.216;5.624;2024-02-21T10:38:12;9.50;99.90
53876;DHT22;39789;53.216;5.624;2024-02-21T10:40:38;9.50;99.90
53876;DHT22;39789;53.216;5.624;2024-02-21T10:43:05;9.70;99.90
53876;DHT22;39789;53.216;5.624;2024-02-21T10:45:37;9.70;99.90
53876;DHT22;39789;53.216;5.624;2024-02-21T10:48:14;9.70;99.90
53876;DHT22;39789;53.216;5.624;2024-02-21T10:51:10;9.70;99.90
53876;DHT22;39789;53.216;5.624;2024-02-21T10:54:05;9.60;99.90
53876;DHT22;39789;53.216;5.624;2024-02-21T10:56:35;9.50;99.90
53876;DHT22;39789;53.216;5.624;2024-02-21T10:59:06;9.50;99.90
53876;DHT22;39789;53.216;5.624;2024-02-21T11:01:32;9.40;99.90
53876;DHT22;39789;53.216;5.624;2024-02-21T11:04:05;9.40;99.90
53876;DHT22;39789;53.216;5.624;2024-02-21T11:06:34;9.40;99.90
53876;DHT22;39789;53.216;5.624;2024-02-21T11:09:05;9.40;99.90
53876;DHT22;39789;53.216;5.624;2024-02-21T11:11:38;9.40;99.90
53876;DHT22;39789;53.216;5.624;2024-02-21T11:14:17;9.40;99.90
53876;DHT22;39789;53.216;5.624;2024-02-21T11:16:43;9.40;99.90
53876;DHT22;39789;53.216;5.624;2024-02-21T11:19:28;9.40;99.90
53876;DHT22;39789;53.216;5.624;2024-02-21T11:21:56;9.50;99.90
53876;DHT22;39789;53.216;5.624;2024-02-21T11:24:35;9.50;99.90
53876;DHT22;39789;53.216;5.624;2024-02-21T11:27:13;9.50;99.90
53876;DHT22;39789;53.216;5.624;2024-02-21T11:29:43;9.50;99.90
53876;DHT22;39789;53.216;5.624;2024-02-21T11:32:15;9.50;99.90
53876;DHT22;39789;53.216;5.624;2024-02-21T11:34:41;9.50;99.90
53876;DHT22;39789;53.216;5.624;2024-02-21T11:37:13;9.40;99.90
53876;DHT22;39789;53.216;5.624;2024-02-21T11:39:43;9.50;99.90
53876;DHT22;39789;53.216;5.624;2024-02-21T11:42:11;9.40;99.90
53876;DHT22;39789;53.216;5.624;2024-02-21T11:44:38;9.40;99.90
53876;DHT22;39789;53.216;5.624;2024-02-21T11:47:08;8.60;99.90
53876;DHT22;39789;53.216;5.624;2024-02-21T11:49:45;10.90;99.90
53876;DHT22;39789;53.216;5.624;2024-02-21T11:52:18;9.70;99.90
53876;DHT22;39789;53.216;5.624;2024-02-21T11:54:46;9.50;99.90
53876;DHT22;39789;53.216;5.624;2024-02-21T11:57:14;9.50;99.90
53876;DHT22;39789;53.216;5.624;2024-02-21T11:59:40;9.10;99.90
53876;DHT22;39789;53.216;5.624;2024-02-21T12:02:06;9.50;99.90
53876;DHT22;39789;53.216;5.624;2024-02-21T12:04:33;9.50;99.90
53876;DHT22;39789;53.216;5.624;2024-02-21T12:07:02;9.50;99.90
53876;DHT22;39789;53.216;5.624;2024-02-21T12:09:30;9.50;99.90
53876;DHT22;39789;53.216;5.624;2024-02-21T12:14:25;9.60;99.90
53876;DHT22;39789;53.216;5.624;2024-02-21T12:16:51;9.60;99.90
53876;DHT22;39789;53.216;5.624;2024-02-21T12:19:17;9.60;99.90
53876;DHT22;39789;53.216;5.624;2024-02-21T12:21:43;9.60;99.90
53876;DHT22;39789;53.216;5.624;2024-02-21T12:24:23;9.60;99.90
53876;DHT22;39789;53.216;5.624;2024-02-21T12:26:50;9.60;99.90
53876;DHT22;39789;53.216;5.624;2024-02-21T12:29:15;9.50;99.90
53876;DHT22;39789;53.216;5.624;2024-02-21T12:31:41;9.50;99.90
53876;DHT22;39789;53.216;5.624;2024-02-21T12:34:07;9.50;99.90
53876;DHT22;39789;53.216;5.624;2024-02-21T12:36:40;9.60;99.90
53876;DHT22;39789;53.216;5.624;2024-02-21T12:39:07;9.50;99.90
53876;DHT22;39789;53.216;5.624;2024-02-21T12:41:34;9.40;99.90
53876;DHT22;39789;53.216;5.624;2024-02-21T12:44:01;9.40;99.90
53876;DHT22;39789;53.216;5.624;2024-02-21T12:46:26;9.40;99.90
53876;DHT22;39789;53.216;5.624;2024-02-21T12:48:52;9.50;99.90
53876;DHT22;39789;53.216;5.624;2024-02-21T12:51:18;9.50;99.90
53876;DHT22;39789;53.216;5.624;2024-02-21T12:53:47;9.50;99.90
53876;DHT22;39789;53.216;5.624;2024-02-21T12:56:15;9.50;99.90
53876;DHT22;39789;53.216;5.624;2024-02-21T12:58:41;9.60;99.90
53876;DHT22;39789;53.216;5.624;2024-02-21T13:01:06;9.60;99.90
53876;DHT22;39789;53.216;5.624;2024-02-21T13:03:32;9.60;99.90
53876;DHT22;39789;53.216;5.624;2024-02-21T13:05:58;9.70;99.90
53876;DHT22;39789;53.216;5.624;2024-02-21T13:08:25;9.70;99.90
53876;DHT22;39789;53.216;5.624;2024-02-21T13:10:50;9.70;99.90
53876;DHT22;39789;53.216;5.624;2024-02-21T13:13:16;9.70;99.90
53876;DHT22;39789;53.216;5.624;2024-02-21T13:15:42;9.70;99.90
53876;DHT22;39789;53.216;5.624;2024-02-21T13:18:09;9.70;99.90
53876;DHT22;39789;53.216;5.624;2024-02-21T13:20:35;9.70;99.90
53876;DHT22;39789;53.216;5.624;2024-02-21T13:23:01;9.70;99.90
53876;DHT22;39789;53.216;5.624;2024-02-21T13:25:28;9.70;99.90
53876;DHT22;39789;53.216;5.624;2024-02-21T13:27:57;9.70;99.90
53876;DHT22;39789;53.216;5.624;2024-02-21T13:30:23;9.60;99.90
53876;DHT22;39789;53.216;5.624;2024-02-21T13:32:51;9.70;99.90
53876;DHT22;39789;53.216;5.624;2024-02-21T13:35:17;9.60;99.90
53876;DHT22;39789;53.216;5.624;2024-02-21T13:37:43;9.60;99.90
53876;DHT22;39789;53.216;5.624;2024-02-21T13:40:09;9.60;99.90
53876;DHT22;39789;53.216;5.624;2024-02-21T13:42:39;9.60;99.90
53876;DHT22;39789;53.216;5.624;2024-02-21T13:45:05;9.60;99.90
53876;DHT22;39789;53.216;5.624;2024-02-21T13:47:32;9.60;99.90
53876;DHT22;39789;53.216;5.624;2024-02-21T13:49:58;9.60;99.90
53876;DHT22;39789;53.216;5.624;2024-02-21T13:52:24;9.60;99.90
53876;DHT22;39789;53.216;5.624;2024-02-21T13:54:52;9.50;99.90
53876;DHT22;39789;53.216;5.624;2024-02-21T13:57:18;9.50;99.90
53876;DHT22;39789;53.216;5.624;2024-02-21T13:59:43;9.60;99.90
53876;DHT22;39789;53.216;5.624;2024-02-21T14:02:09;9.60;99.90
53876;DHT22;39789;53.216;5.624;2024-02-21T14:04:35;9.50;99.90
53876;DHT22;39789;53.216;5.624;2024-02-21T14:07:01;9.50;99.90
53876;DHT22;39789;53.216;5.624;2024-02-21T14:09:27;9.50;99.90
53876;DHT22;39789;53.216;5.624;2024-02-21T14:11:55;9.50;99.90
53876;DHT22;39789;53.216;5.624;2024-02-21T14:14:21;9.50;99.90
53876;DHT22;39789;53.216;5.624;2024-02-21T14:16:46;9.50;99.90
53876;DHT22;39789;53.216;5.624;2024-02-21T14:19:15;9.50;99.90
53876;DHT22;39789;53.216;5.624;2024-02-21T14:21:41;9.50;99.90
53876;DHT22;39789;53.216;5.624;2024-02-21T14:24:07;9.50;99.90
53876;DHT22;39789;53.216;5.624;2024-02-21T14:26:33;9.50;99.90
53876;DHT22;39789;53.216;5.624;2024-02-21T14:28:59;9.50;99.90
53876;DHT22;39789;53.216;5.624;2024-02-21T14:31:25;9.50;99.90
53876;DHT22;39789;53.216;5.624;2024-02-21T14:33:54;9.40;99.90
53876;DHT22;39789;53.216;5.624;2024-02-21T14:36:20;9.40;99.90
53876;DHT22;39789;53.216;5.624;2024-02-21T14:38:45;9.40;99.90
53876;DHT22;39789;53.216;5.624;2024-02-21T14:41:11;9.40;99.90
53876;DHT22;39789;53.216;5.624;2024-02-21T14:43:39;9.40;99.90
53876;DHT22;39789;53.216;5.624;2024-02-21T14:46:06;9.40;99.90
53876;DHT22;39789;53.216;5.624;2024-02-21T14:48:32;9.40;99.90
53876;DHT22;39789;53.216;5.624;2024-02-21T14:50:58;9.40;99.90
53876;DHT22;39789;53.216;5.624;2024-02-21T14:53:24;9.40;99.90
53876;DHT22;39789;53.216;5.624;2024-02-21T14:55:50;9.40;99.90
53876;DHT22;39789;53.216;5.624;2024-02-21T14:58:16;9.40;99.90
53876;DHT22;39789;53.216;5.624;2024-02-21T15:00:45;9.40;99.90
53876;DHT22;39789;53.216;5.624;2024-02-21T15:03:13;9.40;99.90
53876;DHT22;39789;53.216;5.624;2024-02-21T15:05:41;9.40;99.90
53876;DHT22;39789;53.216;5.624;2024-02-21T15:08:07;9.40;99.90
53876;DHT22;39789;53.216;5.624;2024-02-21T15:10:34;9.40;99.90
53876;DHT22;39789;53.216;5.624;2024-02-21T15:13:02;9.40;99.90
53876;DHT22;39789;53.216;5.624;2024-02-21T15:15:28;9.30;99.90
53876;DHT22;39789;53.216;5.624;2024-02-21T15:17:54;9.30;99.90
53876;DHT22;39789;53.216;5.624;2024-02-21T15:20:20;9.30;99.90
53876;DHT22;39789;53.216;5.624;2024-02-21T15:22:45;9.30;99.90
53876;DHT22;39789;53.216;5.624;2024-02-21T15:25:11;9.30;99.90
53876;DHT22;39789;53.216;5.624;2024-02-21T15:27:45;9.20;99.90
53876;DHT22;39789;53.216;5.624;2024-02-21T15:30:12;9.10;99.90
53876;DHT22;39789;53.216;5.624;2024-02-21T15:32:39;9.10;99.90
53876;DHT22;39789;53.216;5.624;2024-02-21T15:35:06;9.10;99.90
53876;DHT22;39789;53.216;5.624;2024-02-21T15:37:35;9.10;99.90
53876;DHT22;39789;53.216;5.624;2024-02-21T15:40:00;9.00;99.90
53876;DHT22;39789;53.216;5.624;2024-02-21T15:42:27;9.00;99.90
53876;DHT22;39789;53.216;5.624;2024-02-21T15:44:53;9.00;99.90
53876;DHT22;39789;53.216;5.624;2024-02-21T15:47:19;9.00;99.90
53876;DHT22;39789;53.216;5.624;2024-02-21T15:49:54;9.00;99.90